Time;durP1;ratioP1;P1;durP2;ratioP2;P2;SDS_P1;SDS_P2;PMS_P1;PMS_P2;Temp;Humidity;BMP_temperature;BMP_pressure;BME280_temperature;BME280_humidity;BME280_pressure;Samples;Min_cycle;Max_cycle;Signal;HPM_P1;HPM_P2
2023/09/05 00:00:26;;;;;;;13.25;8.45;;;;;;;13.83;100.00;102229.88;10433643;28;20528;-67
2023/09/05 00:05:26;;;;;;;13.48;8.52;;;;;;;13.80;100.00;102235.88;10434589;28;20049;-68
2023/09/05 00:10:27;;;;;;;13.40;8.90;;;;;;;13.76;100.00;102240.22;10437005;28;20053;-67
2023/09/05 00:15:27;;;;;;;15.07;10.00;;;;;;;13.71;100.00;102229.88;10435326;28;20042;-68
2023/09/05 00:20:28;;;;;;;12.18;8.40;;;;;;;13.69;100.00;102228.44;10435229;28;20049;-67
2023/09/05 00:25:28;;;;;;;14.10;9.77;;;;;;;13.60;100.00;102230.75;10434837;28;20037;-68
2023/09/05 00:30:31;;;;;;;15.68;9.50;;;;;;;13.58;100.00;102232.03;10430473;28;20052;-67
2023/09/05 00:35:31;;;;;;;14.05;8.85;;;;;;;13.53;100.00;102230.84;10427725;28;20045;-67
2023/09/05 00:40:32;;;;;;;13.18;9.60;;;;;;;13.43;100.00;102225.06;10438895;28;20076;-67
2023/09/05 00:45:32;;;;;;;14.52;8.77;;;;;;;13.42;100.00;102217.88;10414127;28;20052;-67
2023/09/05 00:50:33;;;;;;;12.38;9.75;;;;;;;13.35;100.00;102205.22;10442742;28;20033;-67
2023/09/05 00:55:33;;;;;;;14.77;9.68;;;;;;;13.29;100.00;102216.19;10437668;28;20033;-66
2023/09/05 01:00:33;;;;;;;14.52;9.82;;;;;;;13.32;100.00;102217.63;10443882;28;20052;-67
2023/09/05 01:05:34;;;;;;;20.45;10.63;;;;;;;13.30;100.00;102209.56;10443017;28;20037;-67
2023/09/05 01:10:46;;;;;;;17.30;10.07;;;;;;;13.18;100.00;102183.78;10417542;28;20049;-67
2023/09/05 01:15:46;;;;;;;13.70;9.80;;;;;;;13.27;100.00;102207.25;10421374;28;20038;-68
2023/09/05 01:21:03;;;;;;;15.35;9.93;;;;;;;13.22;100.00;102206.28;10444706;28;20037;-67
2023/09/05 01:26:04;;;;;;;13.00;9.55;;;;;;;13.24;100.00;102209.66;10413765;28;20068;-67
2023/09/05 01:31:05;;;;;;;16.10;10.40;;;;;;;13.19;100.00;102201.22;10444269;28;20450;-67
2023/09/05 01:36:06;;;;;;;21.27;10.18;;;;;;;13.18;100.00;102189.31;10436279;28;20272;-68
2023/09/05 01:41:06;;;;;;;14.45;10.15;;;;;;;13.16;100.00;102179.59;10440886;28;20033;-68
2023/09/05 01:46:07;;;;;;;17.90;11.38;;;;;;;13.19;100.00;102187.38;10443173;28;20037;-67
2023/09/05 01:51:09;;;;;;;15.13;10.95;;;;;;;13.19;100.00;102184.63;10420169;28;20041;-68
2023/09/05 01:56:09;;;;;;;14.38;10.23;;;;;;;13.21;100.00;102180.56;10441481;28;20104;-67
2023/09/05 02:01:10;;;;;;;17.17;10.98;;;;;;;13.23;100.00;102169.25;10440612;28;20099;-67
2023/09/05 02:06:12;;;;;;;18.65;11.57;;;;;;;13.30;100.00;102170.84;10435747;28;20061;-67
2023/09/05 02:11:14;;;;;;;17.88;11.48;;;;;;;13.33;100.00;102163.97;10436557;28;20041;-67
2023/09/05 02:16:18;;;;;;;18.02;10.90;;;;;;;13.31;100.00;102160.59;10438650;28;20174;-67
2023/09/05 02:21:19;;;;;;;15.43;10.70;;;;;;;13.33;100.00;102169.50;10441180;28;20119;-67
2023/09/05 02:26:19;;;;;;;12.82;9.73;;;;;;;13.28;100.00;102166.59;10435803;28;20036;-67
2023/09/05 02:31:20;;;;;;;15.00;10.18;;;;;;;13.20;100.00;102169.72;10440544;28;20064;-67
2023/09/05 02:36:21;;;;;;;17.17;10.50;;;;;;;13.13;100.00;102156.88;10441786;28;20044;-67
2023/09/05 02:41:22;;;;;;;15.50;10.23;;;;;;;13.11;100.00;102160.97;10450305;28;20308;-67
2023/09/05 02:46:22;;;;;;;17.40;12.00;;;;;;;13.07;100.00;102159.75;10440480;28;20484;-67
2023/09/05 02:51:22;;;;;;;18.17;11.88;;;;;;;13.05;100.00;102156.38;10434689;28;20041;-68
2023/09/05 02:56:23;;;;;;;17.48;12.23;;;;;;;13.03;100.00;102162.16;10442067;28;20045;-67
2023/09/05 03:01:23;;;;;;;18.45;12.68;;;;;;;13.04;100.00;102155.56;10434552;28;20095;-67
2023/09/05 03:06:24;;;;;;;20.02;12.82;;;;;;;13.02;100.00;102152.19;10431837;28;20049;-68
2023/09/05 03:11:24;;;;;;;21.70;12.68;;;;;;;12.99;100.00;102147.13;10437442;28;20416;-67
2023/09/05 03:16:25;;;;;;;19.85;13.70;;;;;;;13.00;100.00;102143.28;10418213;28;20072;-68
2023/09/05 03:21:26;;;;;;;16.90;12.27;;;;;;;12.96;100.00;102147.63;10436241;28;20108;-67
2023/09/05 03:26:26;;;;;;;21.17;14.20;;;;;;;12.94;100.00;102138.72;10419542;28;20106;-67
2023/09/05 03:31:30;;;;;;;20.15;13.88;;;;;;;12.97;100.00;102131.88;10435839;28;20037;-67
2023/09/05 03:36:32;;;;;;;17.77;12.52;;;;;;;12.98;100.00;102123.34;10412028;28;20105;-67
2023/09/05 03:41:32;;;;;;;21.17;13.25;;;;;;;12.92;100.00;102129.81;10436004;28;20047;-67
2023/09/05 03:46:33;;;;;;;22.52;12.93;;;;;;;12.89;100.00;102130.28;10414614;28;20045;-68
2023/09/05 03:51:33;;;;;;;26.13;15.43;;;;;;;12.87;100.00;102126.94;10414647;28;20245;-67
2023/09/05 03:56:34;;;;;;;20.85;13.82;;;;;;;12.88;100.00;102125.84;10439630;28;20049;-68
2023/09/05 04:01:34;;;;;;;18.88;14.02;;;;;;;12.81;100.00;102109.38;10431420;28;20064;-67
2023/09/05 04:06:37;;;;;;;21.73;14.25;;;;;;;12.79;100.00;102096.88;10419500;28;20033;-68
2023/09/05 04:11:37;;;;;;;19.48;13.55;;;;;;;12.86;100.00;102111.44;10412885;28;20038;-68
2023/09/05 04:16:38;;;;;;;17.63;12.68;;;;;;;12.77;100.00;102118.38;10419329;28;20056;-68
2023/09/05 04:21:39;;;;;;;20.88;12.70;;;;;;;12.75;100.00;102137.13;10432322;28;20048;-67
2023/09/05 04:26:39;;;;;;;19.17;12.45;;;;;;;12.65;100.00;102126.66;10440835;28;20045;-65
2023/09/05 04:31:40;;;;;;;18.70;13.25;;;;;;;12.55;100.00;102130.00;10443220;28;20071;-67
2023/09/05 04:36:40;;;;;;;20.52;13.65;;;;;;;12.48;100.00;102129.25;10408322;28;20037;-67
2023/09/05 04:41:41;;;;;;;22.98;14.32;;;;;;;12.45;100.00;102126.97;10431745;28;20653;-67
2023/09/05 04:46:45;;;;;;;20.15;13.98;;;;;;;12.45;100.00;102124.22;10441972;28;20045;-67
2023/09/05 04:51:45;;;;;;;21.92;15.57;;;;;;;12.44;100.00;102122.53;10439546;28;20477;-67
2023/09/05 04:56:46;;;;;;;30.13;16.33;;;;;;;12.44;100.00;102125.28;10425537;28;20131;-66
2023/09/05 05:01:46;;;;;;;23.00;13.93;;;;;;;12.43;100.00;102123.63;10436889;28;20037;-67
2023/09/05 05:06:47;;;;;;;23.48;15.43;;;;;;;12.34;100.00;102113.97;10438108;28;20033;-67
2023/09/05 05:11:47;;;;;;;22.55;14.98;;;;;;;12.40;100.00;102115.78;10443289;28;20056;-67
2023/09/05 05:16:49;;;;;;;32.15;16.20;;;;;;;12.44;100.00;102130.81;10436722;28;20405;-67
2023/09/05 05:21:50;;;;;;;22.67;15.32;;;;;;;12.47;100.00;102133.94;10443747;28;20044;-68
2023/09/05 05:26:50;;;;;;;24.27;16.80;;;;;;;12.52;100.00;102119.41;10417250;28;20047;-67
2023/09/05 05:31:50;;;;;;;25.98;17.02;;;;;;;12.65;100.00;102123.88;10419019;28;20087;-67
2023/09/05 05:36:51;;;;;;;26.60;17.55;;;;;;;12.78;100.00;102109.84;10440037;28;20045;-67
2023/09/05 05:41:51;;;;;;;26.40;17.48;;;;;;;12.89;100.00;102113.72;10412977;28;20045;-65
2023/09/05 05:46:57;;;;;;;26.35;17.55;;;;;;;12.97;100.00;102099.53;10421856;28;20112;-67
2023/09/05 05:51:59;;;;;;;27.48;17.65;;;;;;;13.08;100.00;102100.59;10442010;28;20041;-67
2023/09/05 05:57:01;;;;;;;27.58;18.20;;;;;;;13.21;100.00;102105.03;10439239;28;20053;-68
2023/09/05 06:02:03;;;;;;;25.05;17.17;;;;;;;13.30;100.00;102103.63;10438056;28;20037;-67
2023/09/05 06:07:04;;;;;;;25.25;17.17;;;;;;;13.43;100.00;102106.13;10437465;28;20041;-67
2023/09/05 06:12:05;;;;;;;23.63;15.75;;;;;;;13.61;100.00;102109.81;10440910;28;20049;-66
2023/09/05 06:17:05;;;;;;;23.48;14.98;;;;;;;13.93;100.00;102094.44;10437081;28;20047;-66
2023/09/05 06:22:05;;;;;;;21.25;14.50;;;;;;;14.30;100.00;102104.22;10443050;28;20048;-66
2023/09/05 06:27:06;;;;;;;19.70;12.98;;;;;;;14.67;100.00;102101.84;10434933;28;20424;-66
2023/09/05 06:32:06;;;;;;;19.58;12.35;;;;;;;15.01;100.00;102106.56;10433806;28;20462;-66
2023/09/05 06:37:07;;;;;;;16.67;11.98;;;;;;;15.30;100.00;102098.94;10439496;28;20060;-66
2023/09/05 06:42:08;;;;;;;17.23;10.82;;;;;;;15.66;100.00;102102.19;10434168;28;20049;-67
2023/09/05 06:47:08;;;;;;;13.68;9.43;;;;;;;15.96;100.00;102107.28;10438494;28;20048;-66
2023/09/05 06:52:09;;;;;;;12.55;9.98;;;;;;;16.24;100.00;102114.53;10431700;28;20041;-66
2023/09/05 06:57:10;;;;;;;11.65;8.93;;;;;;;16.46;100.00;102127.53;10422895;28;20060;-67
2023/09/05 07:02:10;;;;;;;13.25;10.13;;;;;;;16.67;100.00;102129.38;10425830;28;20048;-67
2023/09/05 07:07:11;;;;;;;13.95;9.57;;;;;;;16.84;100.00;102136.78;10410040;28;20053;-67
2023/09/05 07:12:12;;;;;;;14.88;9.50;;;;;;;16.93;100.00;102127.69;10414028;28;20033;-67
2023/09/05 07:17:12;;;;;;;14.40;9.13;;;;;;;17.11;100.00;102131.97;10372302;28;20481;-66
2023/09/05 07:22:12;;;;;;;13.88;8.80;;;;;;;17.28;100.00;102130.97;10391869;28;20041;-67
2023/09/05 07:27:15;;;;;;;9.75;7.80;;;;;;;17.29;100.00;102115.94;10401742;28;20033;-66
2023/09/05 07:32:15;;;;;;;11.40;8.32;;;;;;;17.60;100.00;102138.41;10398775;28;20033;-67
2023/09/05 07:37:16;;;;;;;10.98;7.65;;;;;;;17.80;100.00;102141.28;10411140;28;20138;-67
2023/09/05 07:42:16;;;;;;;13.05;7.10;;;;;;;17.94;100.00;102138.81;10410587;28;20041;-66
2023/09/05 07:47:17;;;;;;;11.75;7.75;;;;;;;18.12;100.00;102137.50;10419072;28;20442;-67
2023/09/05 07:52:17;;;;;;;11.80;7.97;;;;;;;18.28;100.00;102136.41;10418116;28;20418;-67
2023/09/05 07:57:18;;;;;;;11.10;8.18;;;;;;;18.44;100.00;102137.28;10421580;28;20053;-67
2023/09/05 08:02:18;;;;;;;10.63;7.10;;;;;;;18.59;100.00;102136.47;10421942;28;20037;-66
2023/09/05 08:07:19;;;;;;;10.35;7.38;;;;;;;18.75;100.00;102135.34;10419996;28;20053;-67
2023/09/05 08:12:19;;;;;;;9.15;7.72;;;;;;;18.87;100.00;102139.84;10433255;28;20041;-67
2023/09/05 08:17:20;;;;;;;9.70;7.20;;;;;;;18.97;100.00;102137.03;10416862;28;20033;-66
2023/09/05 08:22:20;;;;;;;11.15;7.28;;;;;;;19.20;100.00;102141.19;10405672;28;20037;-67
2023/09/05 08:27:28;;;;;;;7.88;6.03;;;;;;;19.46;100.00;102147.56;10425178;28;20037;-67
2023/09/05 08:32:30;;;;;;;8.15;5.78;;;;;;;19.81;100.00;102139.38;10430241;28;20048;-67
2023/09/05 08:37:32;;;;;;;9.27;5.53;;;;;;;20.16;100.00;102138.38;10429268;28;20033;-68
2023/09/05 08:42:32;;;;;;;7.90;5.53;;;;;;;20.56;100.00;102136.41;10429921;28;20046;-67
2023/09/05 08:47:33;;;;;;;10.60;5.28;;;;;;;20.96;100.00;102128.84;10437566;28;20049;-67
2023/09/05 08:52:34;;;;;;;6.63;4.70;;;;;;;21.24;100.00;102109.50;10433331;28;20045;-66
2023/09/05 08:57:36;;;;;;;6.47;4.63;;;;;;;21.60;100.00;102106.31;10437820;28;20045;-67
2023/09/05 09:02:36;;;;;;;8.35;5.65;;;;;;;21.94;100.00;102115.38;10429641;28;20042;-67
2023/09/05 09:07:37;;;;;;;8.63;4.72;;;;;;;22.19;100.00;102118.97;10437867;28;20050;-67
2023/09/05 09:12:37;;;;;;;7.60;5.57;;;;;;;22.40;100.00;102102.69;10436509;28;20037;-67
2023/09/05 09:17:41;;;;;;;6.72;5.05;;;;;;;22.72;100.00;102110.28;10444493;28;20098;-67
2023/09/05 09:22:42;;;;;;;8.32;6.10;;;;;;;22.98;100.00;102095.78;10441317;28;20460;-67
2023/09/05 09:27:42;;;;;;;10.05;5.85;;;;;;;23.16;100.00;102086.50;10443991;28;20100;-67
2023/09/05 09:32:43;;;;;;;8.63;3.85;;;;;;;23.46;100.00;102091.81;10439296;28;20042;-68
2023/09/05 09:37:47;;;;;;;5.43;3.65;;;;;;;23.70;100.00;102074.72;10417554;28;20057;-67
2023/09/05 09:42:48;;;;;;;8.02;3.63;;;;;;;23.96;100.00;102089.09;10437861;28;20037;-67
2023/09/05 09:47:51;;;;;;;5.10;3.40;;;;;;;24.14;100.00;102081.63;10440750;28;20033;-67
2023/09/05 09:52:52;;;;;;;5.30;2.75;;;;;;;24.33;100.00;102071.03;10439446;28;20037;-68
2023/09/05 09:57:56;;;;;;;3.13;2.13;;;;;;;24.62;100.00;102072.59;10423243;28;20053;-68
2023/09/05 10:02:57;;;;;;;6.72;3.38;;;;;;;24.95;100.00;102061.00;10438422;28;20041;-68
2023/09/05 10:07:57;;;;;;;5.82;3.55;;;;;;;25.17;100.00;102062.94;10418005;28;20046;-67
2023/09/05 10:12:58;;;;;;;5.03;2.63;;;;;;;25.39;100.00;102053.59;10437367;28;20041;-68
2023/09/05 10:17:58;;;;;;;5.18;2.88;;;;;;;25.66;100.00;102043.22;10416656;28;20111;-68
2023/09/05 10:22:59;;;;;;;5.22;2.95;;;;;;;25.88;100.00;102047.88;10419307;28;20072;-68
2023/09/05 10:27:59;;;;;;;3.92;2.40;;;;;;;26.16;100.00;102048.41;10427591;28;20038;-67
2023/09/05 10:33:00;;;;;;;3.45;1.88;;;;;;;26.26;100.00;102036.78;10424174;28;20037;-68
2023/09/05 10:38:04;;;;;;;6.55;3.05;;;;;;;26.45;100.00;102041.25;10421211;28;20037;-69
2023/09/05 10:43:08;;;;;;;3.92;2.63;;;;;;;26.63;100.00;102017.50;10421039;28;20037;-67
2023/09/05 10:48:15;;;;;;;5.30;2.08;;;;;;;26.94;100.00;102016.38;10438909;28;20096;-67
2023/09/05 10:53:15;;;;;;;;;;;;;;;27.08;100.00;102000.03;10437072;28;20049;-67
2023/09/05 10:58:47;;;;;;;4.85;2.25;;;;;;;27.32;100.00;102004.25;10439810;28;19921;-67
2023/09/05 11:03:48;;;;;;;4.38;2.53;;;;;;;27.53;100.00;101988.16;10421602;28;20497;-67
2023/09/05 11:08:59;;;;;;;4.18;1.85;;;;;;;27.57;100.00;101989.09;10423260;28;20041;-67
2023/09/05 11:13:59;;;;;;;2.85;1.90;;;;;;;27.75;100.00;101977.66;10413823;28;20412;-67
2023/09/05 11:19:00;;;;;;;1.75;1.40;;;;;;;27.98;100.00;101980.97;10415294;28;20494;-67
2023/09/05 11:24:00;;;;;;;2.80;1.58;;;;;;;28.10;100.00;101960.41;10415006;28;20052;-67
2023/09/05 11:29:01;;;;;;;3.42;1.42;;;;;;;28.25;100.00;101956.06;10429738;28;20045;-68
2023/09/05 11:34:01;;;;;;;3.60;1.50;;;;;;;28.48;100.00;101976.31;10417141;28;20033;-67
2023/09/05 11:39:02;;;;;;;2.95;1.65;;;;;;;28.65;100.00;101963.97;10435681;28;20044;-67
2023/09/05 11:44:03;;;;;;;3.42;1.77;;;;;;;28.85;100.00;101967.91;10434028;28;20097;-67
2023/09/05 11:49:03;;;;;;;3.90;1.88;;;;;;;29.07;100.00;101963.78;10437742;28;20037;-68
2023/09/05 11:54:04;;;;;;;4.32;1.63;;;;;;;29.53;100.00;101953.09;10430623;28;20037;-68
2023/09/05 11:59:04;;;;;;;2.70;1.73;;;;;;;30.35;100.00;101952.69;10417175;28;20043;-68
2023/09/05 12:04:05;;;;;;;3.03;1.80;;;;;;;31.10;98.59;101950.94;10434953;28;20048;-64
2023/09/05 12:09:09;;;;;;;3.70;1.70;;;;;;;31.80;94.98;101937.06;10417963;28;20068;-68
2023/09/05 12:14:10;;;;;;;3.10;2.00;;;;;;;32.58;92.95;101932.09;10434145;28;20493;-68
2023/09/05 12:19:10;;;;;;;3.13;2.30;;;;;;;33.41;87.93;101922.81;10437204;28;20092;-68
2023/09/05 12:24:22;;;;;;;5.00;1.83;;;;;;;33.96;83.91;101913.72;10432462;28;20374;-68
2023/09/05 12:29:36;;;;;;;3.72;2.20;;;;;;;34.07;81.20;101913.84;10429503;28;20076;-69
2023/09/05 12:34:36;;;;;;;3.22;1.58;;;;;;;34.56;79.22;101918.41;10433662;28;20037;-68
2023/09/05 12:39:37;;;;;;;3.55;1.75;;;;;;;34.46;76.18;101884.81;10432159;28;20037;-68
2023/09/05 12:44:38;;;;;;;3.10;1.75;;;;;;;34.71;76.55;101914.50;10435066;28;20049;-68
2023/09/05 12:49:38;;;;;;;2.65;1.75;;;;;;;34.87;75.14;101911.31;10443547;28;20052;-69
2023/09/05 12:54:40;;;;;;;3.60;1.48;;;;;;;34.52;74.82;101901.25;10440449;28;20037;-69
2023/09/05 12:59:41;;;;;;;4.10;1.60;;;;;;;34.76;74.13;101899.00;10442927;28;20045;-68
2023/09/05 13:04:41;;;;;;;2.28;1.60;;;;;;;35.23;69.94;101890.75;10445194;28;20041;-68
2023/09/05 13:09:42;;;;;;;7.53;1.35;;;;;;;35.64;68.99;101885.63;10439148;28;20045;-68
2023/09/05 13:14:45;;;;;;;1.83;1.70;;;;;;;35.97;70.01;101887.38;10438715;28;20041;-68
2023/09/05 13:19:45;;;;;;;3.83;1.52;;;;;;;36.05;67.92;101870.16;10445957;28;20099;-69
2023/09/05 13:24:46;;;;;;;3.45;1.55;;;;;;;36.08;68.26;101878.78;10439428;28;20079;-68
2023/09/05 13:29:46;;;;;;;2.58;1.60;;;;;;;36.14;65.78;101862.84;10444402;28;20385;-68
2023/09/05 13:34:47;;;;;;;3.08;1.95;;;;;;;36.38;70.01;101871.06;10440828;28;20474;-69
2023/09/05 13:39:47;;;;;;;2.20;1.60;;;;;;;36.54;70.00;101874.31;10437199;28;20037;-68
2023/09/05 13:44:48;;;;;;;4.72;1.67;;;;;;;36.56;68.39;101857.53;10438963;28;20069;-68
2023/09/05 13:49:48;;;;;;;2.63;1.80;;;;;;;36.69;68.66;101855.91;10438916;28;20045;-68
2023/09/05 13:54:49;;;;;;;2.95;1.35;;;;;;;36.78;64.91;101848.91;10421549;28;20037;-69
2023/09/05 13:59:49;;;;;;;3.63;1.35;;;;;;;36.49;64.73;101838.28;10439644;28;20091;-68
2023/09/05 14:04:52;;;;;;;3.22;1.63;;;;;;;36.60;65.75;101825.97;10437416;28;20068;-68
2023/09/05 14:09:52;;;;;;;2.92;1.60;;;;;;;36.84;66.25;101830.03;10428837;28;20046;-68
2023/09/05 14:14:53;;;;;;;2.78;1.60;;;;;;;36.69;65.29;101830.09;10440719;28;20512;-69
2023/09/05 14:19:53;;;;;;;4.30;1.60;;;;;;;36.79;66.85;101833.34;10434765;28;20045;-69
2023/09/05 14:24:54;;;;;;;2.63;1.55;;;;;;;36.75;66.56;101825.56;10435538;28;20042;-68
2023/09/05 14:29:54;;;;;;;2.83;1.50;;;;;;;36.71;66.11;101824.78;10442297;28;20052;-68
2023/09/05 14:34:55;;;;;;;3.72;1.98;;;;;;;36.35;67.85;101824.75;10431294;28;20402;-68
2023/09/05 14:39:56;;;;;;;2.20;1.80;;;;;;;36.28;66.06;101812.47;10438092;28;20033;-69
2023/09/05 14:44:57;;;;;;;2.80;1.92;;;;;;;35.69;66.63;101813.63;10435723;28;20033;-69
2023/09/05 14:49:57;;;;;;;2.63;1.52;;;;;;;35.43;68.55;101829.09;10437854;28;20064;-69
2023/09/05 14:54:58;;;;;;;4.38;2.13;;;;;;;35.41;70.23;101834.41;10435855;28;20049;-68
2023/09/05 14:59:58;;;;;;;2.42;1.70;;;;;;;35.15;69.89;101832.66;10435196;28;20033;-68
2023/09/05 15:04:59;;;;;;;3.47;1.50;;;;;;;34.62;71.53;101842.47;10438014;28;20036;-68
2023/09/05 15:09:59;;;;;;;3.20;1.65;;;;;;;34.16;73.03;101837.22;10431259;28;20033;-68
2023/09/05 15:15:00;;;;;;;4.55;1.65;;;;;;;33.92;74.29;101839.41;10437412;28;20041;-68
2023/09/05 15:20:00;;;;;;;3.22;1.75;;;;;;;33.71;74.94;101842.03;10432194;28;20037;-68
2023/09/05 15:25:11;;;;;;;2.20;1.50;;;;;;;33.22;76.86;101834.47;10438625;28;20033;-69
2023/09/05 15:30:15;;;;;;;2.25;1.95;;;;;;;32.61;77.71;101831.56;10438509;28;20037;-68
2023/09/05 15:35:16;;;;;;;2.45;1.50;;;;;;;32.46;78.46;101826.81;10416134;28;20057;-67
2023/09/05 15:40:17;;;;;;;3.45;1.60;;;;;;;32.22;80.45;101836.56;10439843;28;20037;-68
2023/09/05 15:45:17;;;;;;;3.15;1.70;;;;;;;31.53;81.14;101825.91;10431720;28;20110;-67
2023/09/05 15:50:18;;;;;;;2.47;1.77;;;;;;;30.55;84.36;101851.31;10400966;28;20046;-69
2023/09/05 15:55:18;;;;;;;3.42;1.50;;;;;;;29.58;88.68;101859.19;10437580;28;20041;-68
2023/09/05 16:00:19;;;;;;;1.67;1.50;;;;;;;28.83;97.73;101852.03;10431734;28;20033;-68
2023/09/05 16:05:19;;;;;;;4.35;1.60;;;;;;;28.37;100.00;101857.00;10438787;28;20033;-68
2023/09/05 16:10:21;;;;;;;2.80;1.70;;;;;;;27.89;100.00;101870.69;10431175;28;20037;-70
2023/09/05 16:15:22;;;;;;;9.30;1.77;;;;;;;27.57;100.00;101867.47;10433063;28;20121;-70
2023/09/05 16:20:22;;;;;;;1.63;1.10;;;;;;;27.36;100.00;101880.81;10438936;28;20041;-68
2023/09/05 16:25:23;;;;;;;3.05;1.50;;;;;;;27.07;100.00;101867.53;10443830;28;20034;-68
2023/09/05 16:30:27;;;;;;;4.72;1.52;;;;;;;26.91;100.00;101879.41;10444689;28;20087;-68
2023/09/05 16:35:28;;;;;;;4.10;1.50;;;;;;;26.65;100.00;101879.59;10442970;28;20037;-68
2023/09/05 16:40:30;;;;;;;2.42;1.25;;;;;;;26.42;100.00;101872.50;10436469;28;20029;-68
2023/09/05 16:45:31;;;;;;;4.25;1.30;;;;;;;26.26;100.00;101877.88;10439624;28;20041;-68
2023/09/05 16:50:31;;;;;;;3.33;1.65;;;;;;;26.13;100.00;101874.13;10445050;28;20045;-68
2023/09/05 16:55:39;;;;;;;2.80;1.52;;;;;;;25.95;100.00;101868.50;10421716;28;20041;-67
2023/09/05 17:00:40;;;;;;;3.05;1.60;;;;;;;25.74;100.00;101870.34;10444047;28;20071;-67
2023/09/05 17:05:40;;;;;;;2.40;1.52;;;;;;;25.51;100.00;101872.53;10444500;28;20517;-68
2023/09/05 17:10:41;;;;;;;3.20;1.40;;;;;;;25.27;100.00;101871.00;10438092;28;20037;-67
2023/09/05 17:15:41;;;;;;;2.55;1.38;;;;;;;25.10;100.00;101866.16;10411715;28;20049;-67
2023/09/05 17:20:42;;;;;;;3.05;1.42;;;;;;;24.90;100.00;101872.44;10438146;28;20042;-68
2023/09/05 17:25:42;;;;;;;2.75;1.50;;;;;;;24.81;100.00;101875.22;10442373;28;20044;-68
2023/09/05 17:30:43;;;;;;;9.00;3.33;;;;;;;24.70;100.00;101874.72;10436766;28;20071;-68
2023/09/05 17:35:44;;;;;;;2.00;1.70;;;;;;;24.60;100.00;101875.00;10438753;28;20049;-68
2023/09/05 17:40:44;;;;;;;3.10;2.05;;;;;;;24.35;100.00;101860.47;10440379;28;20048;-67
2023/09/05 17:45:45;;;;;;;2.67;1.90;;;;;;;24.29;100.00;101875.84;10421797;28;20053;-68
2023/09/05 17:50:53;;;;;;;4.75;2.15;;;;;;;24.09;100.00;101877.22;10440196;28;20057;-68
2023/09/05 17:55:55;;;;;;;4.28;2.00;;;;;;;23.91;100.00;101887.50;10440737;28;20037;-67
2023/09/05 18:00:55;;;;;;;3.53;1.88;;;;;;;23.70;100.00;101889.97;10438537;28;20581;-67
2023/09/05 18:05:56;;;;;;;3.70;2.63;;;;;;;23.49;100.00;101889.66;10441023;28;20105;-68
2023/09/05 18:11:06;;;;;;;3.40;2.28;;;;;;;23.27;100.00;101900.84;10438767;28;20033;-68
2023/09/05 18:16:07;;;;;;;3.67;2.40;;;;;;;23.02;100.00;101888.22;10423188;28;20046;-67
2023/09/05 18:21:08;;;;;;;2.95;2.47;;;;;;;22.84;100.00;101898.38;10437644;28;20037;-68
2023/09/05 18:26:10;;;;;;;4.10;2.20;;;;;;;22.67;100.00;101899.84;10442120;28;20033;-68
2023/09/05 18:31:11;;;;;;;4.72;2.53;;;;;;;22.47;100.00;101886.22;10438248;28;20045;-67
2023/09/05 18:36:12;;;;;;;4.10;2.60;;;;;;;22.41;100.00;101893.94;10433578;28;20051;-68
2023/09/05 18:41:18;;;;;;;5.45;2.75;;;;;;;22.28;100.00;101901.19;10441312;28;20052;-68
2023/09/05 18:46:19;;;;;;;4.30;3.25;;;;;;;22.15;100.00;101904.75;10432717;28;20037;-68
2023/09/05 18:51:19;;;;;;;3.83;2.78;;;;;;;22.02;100.00;101903.56;10437482;28;20033;-67
2023/09/05 18:56:20;;;;;;;7.50;3.33;;;;;;;21.91;100.00;101916.94;10441821;28;20049;-67
2023/09/05 19:01:20;;;;;;;5.55;3.13;;;;;;;21.82;100.00;101912.34;10439448;28;20037;-67
2023/09/05 19:06:21;;;;;;;6.43;3.40;;;;;;;21.72;100.00;101908.53;10435691;28;20034;-68
2023/09/05 19:11:21;;;;;;;6.65;3.42;;;;;;;21.65;100.00;101913.72;10439566;28;20041;-68
2023/09/05 19:16:21;;;;;;;4.57;3.30;;;;;;;21.53;100.00;101905.75;10436787;28;20041;-69
2023/09/05 19:21:23;;;;;;;4.32;3.30;;;;;;;21.45;100.00;101909.25;10436793;28;20125;-68
2023/09/05 19:26:24;;;;;;;4.55;2.80;;;;;;;21.35;100.00;101904.63;10437669;28;20025;-68
2023/09/05 19:31:24;;;;;;;8.18;3.30;;;;;;;21.28;100.00;101906.13;10436070;28;20374;-69
2023/09/05 19:36:25;;;;;;;5.25;3.88;;;;;;;21.20;100.00;101918.00;10430599;28;20481;-69
2023/09/05 19:41:26;;;;;;;7.00;3.85;;;;;;;21.11;100.00;101915.88;10420973;28;20045;-67
2023/09/05 19:46:26;;;;;;;5.35;3.67;;;;;;;21.02;100.00;101920.47;10410693;28;20073;-68
2023/09/05 19:51:27;;;;;;;5.95;4.00;;;;;;;20.95;100.00;101920.00;10425721;28;20037;-68
2023/09/05 19:56:27;;;;;;;7.10;3.83;;;;;;;20.89;100.00;101916.44;10420837;28;20052;-68
2023/09/05 20:01:28;;;;;;;6.53;4.20;;;;;;;20.79;100.00;101913.75;10420707;28;20045;-68
2023/09/05 20:06:28;;;;;;;6.45;4.65;;;;;;;20.83;100.00;101919.59;10415092;28;20044;-69
2023/09/05 20:11:29;;;;;;;9.02;4.35;;;;;;;20.86;100.00;101919.00;10420554;28;20045;-70
2023/09/05 20:16:30;;;;;;;8.68;5.15;;;;;;;20.86;100.00;101917.03;10415431;28;20075;-68
2023/09/05 20:21:31;;;;;;;5.07;3.85;;;;;;;20.81;100.00;101916.25;10427541;28;20045;-69
2023/09/05 20:26:31;;;;;;;6.55;4.10;;;;;;;20.73;100.00;101915.81;10432355;28;20417;-67
2023/09/05 20:31:32;;;;;;;4.97;3.35;;;;;;;20.68;100.00;101920.63;10425755;28;20543;-69
2023/09/05 20:36:33;;;;;;;6.40;3.80;;;;;;;20.60;100.00;101910.06;10432089;28;20079;-69
2023/09/05 20:41:35;;;;;;;7.18;4.80;;;;;;;20.51;100.00;101921.06;10428664;28;20127;-67
2023/09/05 20:46:35;;;;;;;7.68;3.78;;;;;;;20.38;100.00;101919.75;10435058;28;20033;-67
2023/09/05 20:51:36;;;;;;;6.05;4.35;;;;;;;20.31;100.00;101922.91;10431544;28;20060;-68
2023/09/05 20:56:40;;;;;;;6.03;4.50;;;;;;;20.10;100.00;101918.66;10440529;28;20069;-68
2023/09/05 21:01:40;;;;;;;7.38;4.95;;;;;;;19.99;100.00;101928.25;10412457;28;20090;-68
2023/09/05 21:06:43;;;;;;;7.03;5.10;;;;;;;19.50;100.00;101866.56;10436557;28;20034;-68
2023/09/05 21:11:43;;;;;;;5.50;4.50;;;;;;;19.81;100.00;101930.63;10447034;28;20116;-67
2023/09/05 21:16:44;;;;;;;7.22;5.47;;;;;;;19.75;100.00;101929.84;10440891;28;20107;-67
2023/09/05 21:21:44;;;;;;;7.43;5.38;;;;;;;19.67;100.00;101929.59;10452246;28;20044;-67
2023/09/05 21:26:45;;;;;;;6.63;4.60;;;;;;;19.55;100.00;101933.59;10443266;28;20033;-67
2023/09/05 21:31:45;;;;;;;9.77;5.50;;;;;;;19.51;100.00;101935.28;10443152;28;20537;-68
2023/09/05 21:36:46;;;;;;;6.97;5.25;;;;;;;19.46;100.00;101938.09;10442522;28;20075;-67
2023/09/05 21:41:46;;;;;;;6.32;4.90;;;;;;;19.38;100.00;101957.44;10444264;28;20040;-68
2023/09/05 21:46:46;;;;;;;6.80;5.25;;;;;;;19.28;100.00;101952.72;10442187;28;20069;-67
2023/09/05 21:51:47;;;;;;;8.77;5.40;;;;;;;19.19;100.00;101949.69;10443767;28;20037;-67
2023/09/05 21:56:47;;;;;;;7.95;5.25;;;;;;;19.12;100.00;101950.03;10442886;28;20042;-65
2023/09/05 22:01:49;;;;;;;7.45;4.90;;;;;;;19.05;100.00;101954.22;10448007;28;20044;-67
2023/09/05 22:06:50;;;;;;;9.35;5.45;;;;;;;18.94;100.00;101959.03;10441857;28;20040;-68
2023/09/05 22:11:50;;;;;;;7.82;5.60;;;;;;;18.84;100.00;101953.47;10442384;28;20037;-67
2023/09/05 22:16:51;;;;;;;9.52;6.22;;;;;;;18.72;100.00;101962.13;10440557;28;20048;-67
2023/09/05 22:21:51;;;;;;;7.07;5.88;;;;;;;18.62;100.00;101960.19;10443448;28;20041;-67
2023/09/05 22:26:52;;;;;;;10.02;5.60;;;;;;;18.52;100.00;101963.84;10446175;28;20033;-67
2023/09/05 22:31:53;;;;;;;8.50;5.90;;;;;;;18.44;100.00;101971.91;10439013;28;20071;-67
2023/09/05 22:36:54;;;;;;;10.18;7.07;;;;;;;18.37;100.00;101966.63;10439432;28;20220;-67
2023/09/05 22:41:54;;;;;;;10.30;7.30;;;;;;;18.33;100.00;101968.31;10412500;28;20405;-67